sensor_id;sensor_type;location;lat;lon;timestamp;temperature;humidity
11505;DHT22;5809;53.262;10.408;2022-11-18T00:00:45;1.70;99.90
11505;DHT22;5809;53.262;10.408;2022-11-18T00:05:41;1.60;99.90
11505;DHT22;5809;53.262;10.408;2022-11-18T00:10:36;1.60;99.90
11505;DHT22;5809;53.262;10.408;2022-11-18T00:13:03;1.60;99.90
11505;DHT22;5809;53.262;10.408;2022-11-18T00:15:48;1.60;99.90
11505;DHT22;5809;53.262;10.408;2022-11-18T00:18:14;1.60;99.90
11505;DHT22;5809;53.262;10.408;2022-11-18T00:20:43;1.60;99.90
11505;DHT22;5809;53.262;10.408;2022-11-18T00:23:11;1.50;99.90
11505;DHT22;5809;53.262;10.408;2022-11-18T00:25:38;1.60;99.90
11505;DHT22;5809;53.262;10.408;2022-11-18T00:30:32;1.50;99.90
11505;DHT22;5809;53.262;10.408;2022-11-18T00:35:26;1.60;99.90
11505;DHT22;5809;53.262;10.408;2022-11-18T00:37:54;1.60;99.90
11505;DHT22;5809;53.262;10.408;2022-11-18T00:42:48;1.50;99.90
11505;DHT22;5809;53.262;10.408;2022-11-18T00:45:17;1.50;99.90
11505;DHT22;5809;53.262;10.408;2022-11-18T00:47:44;1.50;99.90
11505;DHT22;5809;53.262;10.408;2022-11-18T00:52:38;1.50;99.90
11505;DHT22;5809;53.262;10.408;2022-11-18T00:55:07;1.50;99.90
11505;DHT22;5809;53.262;10.408;2022-11-18T00:57:34;1.60;99.90
11505;DHT22;5809;53.262;10.408;2022-11-18T01:00:01;1.60;99.90
11505;DHT22;5809;53.262;10.408;2022-11-18T01:04:55;1.50;99.90
11505;DHT22;5809;53.262;10.408;2022-11-18T01:09:49;1.50;99.90
11505;DHT22;5809;53.262;10.408;2022-11-18T01:12:18;1.50;99.90
11505;DHT22;5809;53.262;10.408;2022-11-18T01:15:02;1.60;99.90
11505;DHT22;5809;53.262;10.408;2022-11-18T01:17:30;1.60;99.90
11505;DHT22;5809;53.262;10.408;2022-11-18T01:19:57;1.50;99.90
11505;DHT22;5809;53.262;10.408;2022-11-18T01:22:24;1.50;99.90
11505;DHT22;5809;53.262;10.408;2022-11-18T01:27:20;1.50;99.90
11505;DHT22;5809;53.262;10.408;2022-11-18T01:29:46;1.50;99.90
11505;DHT22;5809;53.262;10.408;2022-11-18T01:37:08;1.40;99.90
11505;DHT22;5809;53.262;10.408;2022-11-18T01:39:35;1.40;99.90
11505;DHT22;5809;53.262;10.408;2022-11-18T01:42:02;1.40;99.90
11505;DHT22;5809;53.262;10.408;2022-11-18T01:47:38;1.40;99.90
11505;DHT22;5809;53.262;10.408;2022-11-18T01:50:07;3.20;99.90
11505;DHT22;5809;53.262;10.408;2022-11-18T01:52:34;1.40;99.90
11505;DHT22;5809;53.262;10.408;2022-11-18T01:55:06;1.40;99.90
11505;DHT22;5809;53.262;10.408;2022-11-18T02:00:04;1.30;99.90
11505;DHT22;5809;53.262;10.408;2022-11-18T02:02:33;1.30;99.90
11505;DHT22;5809;53.262;10.408;2022-11-18T02:05:04;1.30;99.90
11505;DHT22;5809;53.262;10.408;2022-11-18T02:07:33;1.20;99.90
11505;DHT22;5809;53.262;10.408;2022-11-18T02:10:05;1.30;99.90
11505;DHT22;5809;53.262;10.408;2022-11-18T02:12:33;1.20;99.90
11505;DHT22;5809;53.262;10.408;2022-11-18T02:15:00;1.20;99.90
11505;DHT22;5809;53.262;10.408;2022-11-18T02:17:36;1.30;99.90
11505;DHT22;5809;53.262;10.408;2022-11-18T02:20:22;1.20;99.90
11505;DHT22;5809;53.262;10.408;2022-11-18T02:23:20;1.20;99.90
11505;DHT22;5809;53.262;10.408;2022-11-18T02:26:03;1.20;99.90
11505;DHT22;5809;53.262;10.408;2022-11-18T02:28:36;1.10;99.90
11505;DHT22;5809;53.262;10.408;2022-11-18T02:31:10;1.10;99.90
11505;DHT22;5809;53.262;10.408;2022-11-18T02:33:44;1.20;99.90
11505;DHT22;5809;53.262;10.408;2022-11-18T02:36:19;1.20;99.90
11505;DHT22;5809;53.262;10.408;2022-11-18T02:38:50;1.10;99.90
11505;DHT22;5809;53.262;10.408;2022-11-18T02:41:24;1.10;99.90
11505;DHT22;5809;53.262;10.408;2022-11-18T02:43:54;1.10;99.90
11505;DHT22;5809;53.262;10.408;2022-11-18T02:46:26;1.10;99.90
11505;DHT22;5809;53.262;10.408;2022-11-18T02:48:54;1.10;99.90
11505;DHT22;5809;53.262;10.408;2022-11-18T02:51:24;1.00;99.90
11505;DHT22;5809;53.262;10.408;2022-11-18T02:53:55;1.00;99.90
11505;DHT22;5809;53.262;10.408;2022-11-18T02:56:24;1.10;99.90
11505;DHT22;5809;53.262;10.408;2022-11-18T02:58:52;1.10;99.90
11505;DHT22;5809;53.262;10.408;2022-11-18T03:01:21;1.10;99.90
11505;DHT22;5809;53.262;10.408;2022-11-18T03:03:51;1.10;99.90
11505;DHT22;5809;53.262;10.408;2022-11-18T03:06:25;1.10;99.90
11505;DHT22;5809;53.262;10.408;2022-11-18T03:09:00;1.10;99.90
11505;DHT22;5809;53.262;10.408;2022-11-18T03:11:30;0.90;99.90
11505;DHT22;5809;53.262;10.408;2022-11-18T03:14:15;1.00;99.90
11505;DHT22;5809;53.262;10.408;2022-11-18T03:16:50;1.10;99.90
11505;DHT22;5809;53.262;10.408;2022-11-18T03:19:28;1.00;99.90
11505;DHT22;5809;53.262;10.408;2022-11-18T03:22:04;1.00;99.90
11505;DHT22;5809;53.262;10.408;2022-11-18T03:24:34;1.00;99.90
11505;DHT22;5809;53.262;10.408;2022-11-18T03:27:05;1.00;99.90
11505;DHT22;5809;53.262;10.408;2022-11-18T03:29:41;1.00;99.90
11505;DHT22;5809;53.262;10.408;2022-11-18T03:32:12;1.00;99.90
11505;DHT22;5809;53.262;10.408;2022-11-18T03:34:45;1.00;99.90
11505;DHT22;5809;53.262;10.408;2022-11-18T03:37:15;1.00;99.90
11505;DHT22;5809;53.262;10.408;2022-11-18T03:39:45;1.00;99.90
11505;DHT22;5809;53.262;10.408;2022-11-18T03:42:15;0.90;99.90
11505;DHT22;5809;53.262;10.408;2022-11-18T03:44:49;0.90;99.90
11505;DHT22;5809;53.262;10.408;2022-11-18T03:47:18;0.90;99.90
11505;DHT22;5809;53.262;10.408;2022-11-18T03:49:52;0.90;99.90
11505;DHT22;5809;53.262;10.408;2022-11-18T03:52:24;1.00;99.90
11505;DHT22;5809;53.262;10.408;2022-11-18T03:54:54;1.00;99.90
11505;DHT22;5809;53.262;10.408;2022-11-18T03:57:24;1.00;99.90
11505;DHT22;5809;53.262;10.408;2022-11-18T03:59:57;1.00;99.90
11505;DHT22;5809;53.262;10.408;2022-11-18T04:02:27;1.00;99.90
11505;DHT22;5809;53.262;10.408;2022-11-18T04:04:58;1.00;99.90
11505;DHT22;5809;53.262;10.408;2022-11-18T04:07:30;0.80;99.90
11505;DHT22;5809;53.262;10.408;2022-11-18T04:10:03;0.90;99.90
11505;DHT22;5809;53.262;10.408;2022-11-18T04:12:37;0.90;99.90
11505;DHT22;5809;53.262;10.408;2022-11-18T04:15:06;0.90;99.90
11505;DHT22;5809;53.262;10.408;2022-11-18T04:17:33;0.90;99.90
11505;DHT22;5809;53.262;10.408;2022-11-18T04:20:02;0.80;99.90
11505;DHT22;5809;53.262;10.408;2022-11-18T04:32:17;0.90;99.90
11505;DHT22;5809;53.262;10.408;2022-11-18T04:37:13;0.80;99.90
11505;DHT22;5809;53.262;10.408;2022-11-18T04:39:40;0.80;99.90
11505;DHT22;5809;53.262;10.408;2022-11-18T04:47:03;0.70;99.90
11505;DHT22;5809;53.262;10.408;2022-11-18T04:49:31;-3.00;99.90
11505;DHT22;5809;53.262;10.408;2022-11-18T04:54:28;0.50;99.90
11505;DHT22;5809;53.262;10.408;2022-11-18T04:56:55;0.60;99.90
11505;DHT22;5809;53.262;10.408;2022-11-18T04:59:24;0.60;99.90
11505;DHT22;5809;53.262;10.408;2022-11-18T05:01:52;0.60;99.90
11505;DHT22;5809;53.262;10.408;2022-11-18T05:04:20;0.60;99.90
11505;DHT22;5809;53.262;10.408;2022-11-18T05:09:15;0.50;99.90
11505;DHT22;5809;53.262;10.408;2022-11-18T05:11:44;0.60;99.90
11505;DHT22;5809;53.262;10.408;2022-11-18T05:14:29;0.60;99.90
11505;DHT22;5809;53.262;10.408;2022-11-18T05:16:58;0.50;99.90
11505;DHT22;5809;53.262;10.408;2022-11-18T05:19:25;0.50;99.90
11505;DHT22;5809;53.262;10.408;2022-11-18T05:26:50;0.50;99.90
11505;DHT22;5809;53.262;10.408;2022-11-18T05:51:42;0.50;99.90
11505;DHT22;5809;53.262;10.408;2022-11-18T05:56:38;0.40;99.90
11505;DHT22;5809;53.262;10.408;2022-11-18T05:59:06;0.40;99.90
11505;DHT22;5809;53.262;10.408;2022-11-18T06:26:20;0.40;99.90
11505;DHT22;5809;53.262;10.408;2022-11-18T06:31:15;0.30;99.90
11505;DHT22;5809;53.262;10.408;2022-11-18T06:41:05;0.20;99.90
11505;DHT22;5809;53.262;10.408;2022-11-18T06:51:20;0.20;99.90
11505;DHT22;5809;53.262;10.408;2022-11-18T06:56:15;0.20;99.90
11505;DHT22;5809;53.262;10.408;2022-11-18T07:03:38;0.10;99.90
11505;DHT22;5809;53.262;10.408;2022-11-18T07:11:03;0.10;99.90
11505;DHT22;5809;53.262;10.408;2022-11-18T07:13:31;0.10;99.90
11505;DHT22;5809;53.262;10.408;2022-11-18T07:20:56;0.00;99.90
11505;DHT22;5809;53.262;10.408;2022-11-18T07:30:49;0.10;99.90
11505;DHT22;5809;53.262;10.408;2022-11-18T07:55:23;0.10;99.90
11505;DHT22;5809;53.262;10.408;2022-11-18T08:12:38;0.10;99.90
11505;DHT22;5809;53.262;10.408;2022-11-18T08:27:22;0.00;99.90
11505;DHT22;5809;53.262;10.408;2022-11-18T09:04:13;0.00;99.90
11505;DHT22;5809;53.262;10.408;2022-11-18T09:23:54;-0.10;99.90
11505;DHT22;5809;53.262;10.408;2022-11-18T09:26:22;0.00;99.90
11505;DHT22;5809;53.262;10.408;2022-11-18T09:46:23;0.20;95.00
11505;DHT22;5809;53.262;10.408;2022-11-18T09:56:35;0.30;92.70
11505;DHT22;5809;53.262;10.408;2022-11-18T09:59:03;0.30;94.50
11505;DHT22;5809;53.262;10.408;2022-11-18T10:03:57;0.30;93.60
11505;DHT22;5809;53.262;10.408;2022-11-18T10:14:12;0.40;87.50
11505;DHT22;5809;53.262;10.408;2022-11-18T10:16:47;0.40;79.10
11505;DHT22;5809;53.262;10.408;2022-11-18T10:31:55;0.50;54.60
11505;DHT22;5809;53.262;10.408;2022-11-18T10:34:24;0.50;41.10
11505;DHT22;5809;53.262;10.408;2022-11-18T10:36:59;0.40;29.80
11505;DHT22;5809;53.262;10.408;2022-11-18T10:49:58;0.40;1.00
11505;DHT22;5809;53.262;10.408;2022-11-18T10:55:21;0.60;1.00
11505;DHT22;5809;53.262;10.408;2022-11-18T11:08:57;0.70;1.00
11505;DHT22;5809;53.262;10.408;2022-11-18T11:11:26;1.80;3.40
11505;DHT22;5809;53.262;10.408;2022-11-18T11:14:00;0.80;11.00
11505;DHT22;5809;53.262;10.408;2022-11-18T11:16:29;0.70;1.00
11505;DHT22;5809;53.262;10.408;2022-11-18T11:19:01;0.70;1.00
11505;DHT22;5809;53.262;10.408;2022-11-18T11:23:57;0.80;1.00
11505;DHT22;5809;53.262;10.408;2022-11-18T11:31:28;0.80;1.00
11505;DHT22;5809;53.262;10.408;2022-11-18T11:34:06;0.70;1.00
11505;DHT22;5809;53.262;10.408;2022-11-18T11:36:46;0.70;1.00
11505;DHT22;5809;53.262;10.408;2022-11-18T11:39:40;0.70;1.00
11505;DHT22;5809;53.262;10.408;2022-11-18T11:42:21;0.70;1.00
11505;DHT22;5809;53.262;10.408;2022-11-18T11:45:01;1.30;1.00
11505;DHT22;5809;53.262;10.408;2022-11-18T11:47:38;-2.20;1.00
11505;DHT22;5809;53.262;10.408;2022-11-18T11:50:22;0.60;1.00
11505;DHT22;5809;53.262;10.408;2022-11-18T11:53:13;0.70;1.00
11505;DHT22;5809;53.262;10.408;2022-11-18T11:55:54;0.60;1.00
11505;DHT22;5809;53.262;10.408;2022-11-18T11:58:39;0.70;1.00
11505;DHT22;5809;53.262;10.408;2022-11-18T12:01:19;0.70;1.00
11505;DHT22;5809;53.262;10.408;2022-11-18T12:03:50;0.70;1.00
11505;DHT22;5809;53.262;10.408;2022-11-18T12:06:20;0.80;1.00
11505;DHT22;5809;53.262;10.408;2022-11-18T12:08:59;0.80;1.00
11505;DHT22;5809;53.262;10.408;2022-11-18T12:11:32;0.80;1.00
11505;DHT22;5809;53.262;10.408;2022-11-18T12:14:03;0.80;1.00
11505;DHT22;5809;53.262;10.408;2022-11-18T12:16:38;0.80;1.00
11505;DHT22;5809;53.262;10.408;2022-11-18T12:19:09;0.80;1.00
11505;DHT22;5809;53.262;10.408;2022-11-18T12:21:58;0.80;1.00
11505;DHT22;5809;53.262;10.408;2022-11-18T12:24:37;0.80;1.00
11505;DHT22;5809;53.262;10.408;2022-11-18T12:27:10;0.80;1.00
11505;DHT22;5809;53.262;10.408;2022-11-18T12:29:41;0.70;1.00
11505;DHT22;5809;53.262;10.408;2022-11-18T12:32:29;0.70;1.00
11505;DHT22;5809;53.262;10.408;2022-11-18T12:34:59;0.60;1.00
11505;DHT22;5809;53.262;10.408;2022-11-18T12:37:57;0.70;1.00
11505;DHT22;5809;53.262;10.408;2022-11-18T12:40:36;0.70;1.00
11505;DHT22;5809;53.262;10.408;2022-11-18T12:43:05;0.70;1.00
11505;DHT22;5809;53.262;10.408;2022-11-18T12:45:54;0.70;1.00
11505;DHT22;5809;53.262;10.408;2022-11-18T12:48:39;0.60;1.00
11505;DHT22;5809;53.262;10.408;2022-11-18T12:54:32;0.70;1.00
11505;DHT22;5809;53.262;10.408;2022-11-18T12:57:02;0.70;1.00
11505;DHT22;5809;53.262;10.408;2022-11-18T12:59:32;0.70;1.00
11505;DHT22;5809;53.262;10.408;2022-11-18T13:02:17;0.80;1.00
11505;DHT22;5809;53.262;10.408;2022-11-18T13:05:02;0.80;1.00
11505;DHT22;5809;53.262;10.408;2022-11-18T13:07:31;0.90;1.00
11505;DHT22;5809;53.262;10.408;2022-11-18T13:10:23;0.80;1.00
11505;DHT22;5809;53.262;10.408;2022-11-18T13:12:50;0.90;1.00
11505;DHT22;5809;53.262;10.408;2022-11-18T13:15:18;0.90;1.00
11505;DHT22;5809;53.262;10.408;2022-11-18T13:18:11;0.80;1.00
11505;DHT22;5809;53.262;10.408;2022-11-18T13:20:40;0.80;1.00
11505;DHT22;5809;53.262;10.408;2022-11-18T13:23:24;0.80;1.00
11505;DHT22;5809;53.262;10.408;2022-11-18T13:26:17;0.80;1.00
11505;DHT22;5809;53.262;10.408;2022-11-18T13:29:02;0.80;1.00
11505;DHT22;5809;53.262;10.408;2022-11-18T13:31:36;0.80;1.00
11505;DHT22;5809;53.262;10.408;2022-11-18T13:34:11;0.80;1.00
11505;DHT22;5809;53.262;10.408;2022-11-18T13:36:43;0.80;1.00
11505;DHT22;5809;53.262;10.408;2022-11-18T13:39:17;0.80;1.00
11505;DHT22;5809;53.262;10.408;2022-11-18T13:41:57;0.70;1.00
11505;DHT22;5809;53.262;10.408;2022-11-18T13:44:26;0.70;1.00
11505;DHT22;5809;53.262;10.408;2022-11-18T13:47:10;0.70;1.00
11505;DHT22;5809;53.262;10.408;2022-11-18T13:49:44;0.70;1.00
11505;DHT22;5809;53.262;10.408;2022-11-18T13:52:14;0.80;1.00
11505;DHT22;5809;53.262;10.408;2022-11-18T13:54:42;0.80;1.00
11505;DHT22;5809;53.262;10.408;2022-11-18T13:57:16;0.80;1.00
11505;DHT22;5809;53.262;10.408;2022-11-18T13:59:46;0.80;1.00
11505;DHT22;5809;53.262;10.408;2022-11-18T14:02:14;0.80;1.00
11505;DHT22;5809;53.262;10.408;2022-11-18T14:04:50;0.80;1.00
11505;DHT22;5809;53.262;10.408;2022-11-18T14:07:24;0.70;1.00
11505;DHT22;5809;53.262;10.408;2022-11-18T14:09:52;0.70;1.00
11505;DHT22;5809;53.262;10.408;2022-11-18T14:12:24;0.70;1.00
11505;DHT22;5809;53.262;10.408;2022-11-18T14:15:12;0.70;1.00
11505;DHT22;5809;53.262;10.408;2022-11-18T14:17:49;0.70;1.00
11505;DHT22;5809;53.262;10.408;2022-11-18T14:20:17;0.60;1.00
11505;DHT22;5809;53.262;10.408;2022-11-18T14:22:44;0.60;1.00
11505;DHT22;5809;53.262;10.408;2022-11-18T14:25:18;0.50;1.00
11505;DHT22;5809;53.262;10.408;2022-11-18T14:27:50;0.50;1.00
11505;DHT22;5809;53.262;10.408;2022-11-18T14:30:32;0.40;1.00
11505;DHT22;5809;53.262;10.408;2022-11-18T14:33:10;0.30;1.00
11505;DHT22;5809;53.262;10.408;2022-11-18T14:35:37;0.30;1.00
11505;DHT22;5809;53.262;10.408;2022-11-18T14:38:11;0.20;1.00
11505;DHT22;5809;53.262;10.408;2022-11-18T14:40:38;0.10;1.00
11505;DHT22;5809;53.262;10.408;2022-11-18T14:43:08;0.00;1.00
11505;DHT22;5809;53.262;10.408;2022-11-18T14:45:36;0.00;1.00
11505;DHT22;5809;53.262;10.408;2022-11-18T14:48:04;0.00;1.00
11505;DHT22;5809;53.262;10.408;2022-11-18T14:52:58;-0.20;7.20
11505;DHT22;5809;53.262;10.408;2022-11-18T14:57:52;-0.20;1.00
11505;DHT22;5809;53.262;10.408;2022-11-18T15:00:20;-0.30;1.00
11505;DHT22;5809;53.262;10.408;2022-11-18T15:05:14;-0.40;19.50
11505;DHT22;5809;53.262;10.408;2022-11-18T15:07:41;-0.50;27.20
11505;DHT22;5809;53.262;10.408;2022-11-18T15:10:11;-0.50;38.00
11505;DHT22;5809;53.262;10.408;2022-11-18T15:12:38;-0.60;43.40
11505;DHT22;5809;53.262;10.408;2022-11-18T15:15:06;-0.60;41.90
11505;DHT22;5809;53.262;10.408;2022-11-18T15:17:34;-0.60;26.10
11505;DHT22;5809;53.262;10.408;2022-11-18T15:20:01;-0.60;29.70
11505;DHT22;5809;53.262;10.408;2022-11-18T15:22:28;-0.60;35.10
11505;DHT22;5809;53.262;10.408;2022-11-18T15:27:23;-0.70;32.50
11505;DHT22;5809;53.262;10.408;2022-11-18T15:34:45;-0.90;64.60
11505;DHT22;5809;53.262;10.408;2022-11-18T15:37:13;-1.00;67.40
11505;DHT22;5809;53.262;10.408;2022-11-18T15:42:07;-1.00;87.50
11505;DHT22;5809;53.262;10.408;2022-11-18T15:44:34;-1.00;87.70
11505;DHT22;5809;53.262;10.408;2022-11-18T15:51:57;-1.10;81.10
11505;DHT22;5809;53.262;10.408;2022-11-18T15:54:24;-1.10;90.90
11505;DHT22;5809;53.262;10.408;2022-11-18T15:56:51;-1.20;87.40
11505;DHT22;5809;53.262;10.408;2022-11-18T15:59:18;-1.20;91.00
11505;DHT22;5809;53.262;10.408;2022-11-18T16:01:46;-1.20;95.00
11505;DHT22;5809;53.262;10.408;2022-11-18T16:04:16;-1.40;99.90
11505;DHT22;5809;53.262;10.408;2022-11-18T16:06:43;-1.30;99.70
11505;DHT22;5809;53.262;10.408;2022-11-18T16:09:13;-1.30;99.90
11505;DHT22;5809;53.262;10.408;2022-11-18T16:11:41;-1.40;99.90
11505;DHT22;5809;53.262;10.408;2022-11-18T16:19:25;-1.40;99.90
11505;DHT22;5809;53.262;10.408;2022-11-18T16:21:56;-1.40;99.90
11505;DHT22;5809;53.262;10.408;2022-11-18T16:24:26;-1.50;99.90
11505;DHT22;5809;53.262;10.408;2022-11-18T16:26:53;-1.60;99.90
11505;DHT22;5809;53.262;10.408;2022-11-18T16:31:48;-1.50;99.90
11505;DHT22;5809;53.262;10.408;2022-11-18T16:34:20;-1.60;99.90
11505;DHT22;5809;53.262;10.408;2022-11-18T16:36:49;-1.60;99.90
11505;DHT22;5809;53.262;10.408;2022-11-18T16:39:18;-1.60;99.90
11505;DHT22;5809;53.262;10.408;2022-11-18T16:41:49;-1.60;99.90
11505;DHT22;5809;53.262;10.408;2022-11-18T16:44:17;-1.50;99.90
11505;DHT22;5809;53.262;10.408;2022-11-18T16:46:46;-1.60;99.90
11505;DHT22;5809;53.262;10.408;2022-11-18T16:49:14;-1.60;99.90
11505;DHT22;5809;53.262;10.408;2022-11-18T16:51:43;-1.60;99.90
11505;DHT22;5809;53.262;10.408;2022-11-18T16:54:15;-1.70;99.90
11505;DHT22;5809;53.262;10.408;2022-11-18T16:56:42;-1.70;99.90
11505;DHT22;5809;53.262;10.408;2022-11-18T16:59:13;-1.80;99.90
11505;DHT22;5809;53.262;10.408;2022-11-18T17:04:08;-1.80;99.90
11505;DHT22;5809;53.262;10.408;2022-11-18T17:06:36;-1.80;99.90
11505;DHT22;5809;53.262;10.408;2022-11-18T17:13:58;-2.00;99.90
11505;DHT22;5809;53.262;10.408;2022-11-18T17:16:26;-2.00;99.90
11505;DHT22;5809;53.262;10.408;2022-11-18T17:18:53;-2.00;99.90
11505;DHT22;5809;53.262;10.408;2022-11-18T17:23:48;-2.00;99.90
11505;DHT22;5809;53.262;10.408;2022-11-18T17:26:18;-1.90;99.90
11505;DHT22;5809;53.262;10.408;2022-11-18T17:31:14;-2.00;99.90
11505;DHT22;5809;53.262;10.408;2022-11-18T17:33:42;-2.00;99.90
11505;DHT22;5809;53.262;10.408;2022-11-18T17:36:10;-2.10;99.90
11505;DHT22;5809;53.262;10.408;2022-11-18T17:38:39;-2.10;99.90
11505;DHT22;5809;53.262;10.408;2022-11-18T17:41:07;-2.10;99.90
11505;DHT22;5809;53.262;10.408;2022-11-18T17:43:34;-2.10;99.90
11505;DHT22;5809;53.262;10.408;2022-11-18T17:48:29;-2.20;99.90
11505;DHT22;5809;53.262;10.408;2022-11-18T17:51:03;-2.10;99.90
11505;DHT22;5809;53.262;10.408;2022-11-18T17:53:30;-2.10;99.90
11505;DHT22;5809;53.262;10.408;2022-11-18T17:55:57;-2.10;99.90
11505;DHT22;5809;53.262;10.408;2022-11-18T17:58:24;-2.10;99.90
11505;DHT22;5809;53.262;10.408;2022-11-18T18:00:51;-2.00;99.90
11505;DHT22;5809;53.262;10.408;2022-11-18T18:05:45;-2.10;99.90
11505;DHT22;5809;53.262;10.408;2022-11-18T18:08:13;-2.20;99.90
11505;DHT22;5809;53.262;10.408;2022-11-18T18:15:59;-2.10;99.90
11505;DHT22;5809;53.262;10.408;2022-11-18T18:28:18;-2.00;99.90
11505;DHT22;5809;53.262;10.408;2022-11-18T18:35:40;-2.20;99.90
11505;DHT22;5809;53.262;10.408;2022-11-18T18:38:07;-2.30;99.90
11505;DHT22;5809;53.262;10.408;2022-11-18T18:40:36;-2.40;99.90
11505;DHT22;5809;53.262;10.408;2022-11-18T18:43:02;-2.30;99.90
11505;DHT22;5809;53.262;10.408;2022-11-18T18:45:29;-2.20;99.90
11505;DHT22;5809;53.262;10.408;2022-11-18T18:48:14;-2.20;99.90
11505;DHT22;5809;53.262;10.408;2022-11-18T18:50:41;-2.20;99.90
11505;DHT22;5809;53.262;10.408;2022-11-18T18:53:08;-2.20;99.90
11505;DHT22;5809;53.262;10.408;2022-11-18T18:55:36;-2.20;99.90
11505;DHT22;5809;53.262;10.408;2022-11-18T19:00:31;-2.40;99.90
11505;DHT22;5809;53.262;10.408;2022-11-18T19:02:57;-2.40;99.90
11505;DHT22;5809;53.262;10.408;2022-11-18T19:05:26;-2.30;99.90
11505;DHT22;5809;53.262;10.408;2022-11-18T19:12:48;-2.40;99.90
11505;DHT22;5809;53.262;10.408;2022-11-18T19:15:17;-2.40;99.90
11505;DHT22;5809;53.262;10.408;2022-11-18T19:22:58;-2.40;99.90
11505;DHT22;5809;53.262;10.408;2022-11-18T19:25:24;-2.50;99.90
11505;DHT22;5809;53.262;10.408;2022-11-18T19:27:53;-2.50;99.90
11505;DHT22;5809;53.262;10.408;2022-11-18T19:30:20;-2.60;99.90
11505;DHT22;5809;53.262;10.408;2022-11-18T19:32:47;-2.50;99.90
11505;DHT22;5809;53.262;10.408;2022-11-18T19:35:14;-2.50;99.90
11505;DHT22;5809;53.262;10.408;2022-11-18T19:37:41;-2.50;99.90
11505;DHT22;5809;53.262;10.408;2022-11-18T19:40:09;-2.40;99.90
11505;DHT22;5809;53.262;10.408;2022-11-18T19:45:06;-2.50;99.90
11505;DHT22;5809;53.262;10.408;2022-11-18T19:50:01;-2.60;99.90
11505;DHT22;5809;53.262;10.408;2022-11-18T19:57:22;-2.50;95.80
11505;DHT22;5809;53.262;10.408;2022-11-18T20:02:18;-2.40;89.50
11505;DHT22;5809;53.262;10.408;2022-11-18T20:09:53;-2.60;99.90
11505;DHT22;5809;53.262;10.408;2022-11-18T20:19:43;-2.50;94.90
11505;DHT22;5809;53.262;10.408;2022-11-18T20:22:09;-2.60;94.30
11505;DHT22;5809;53.262;10.408;2022-11-18T20:29:31;-2.60;99.20
11505;DHT22;5809;53.262;10.408;2022-11-18T20:36:53;-2.70;96.80
11505;DHT22;5809;53.262;10.408;2022-11-18T20:39:20;-2.70;98.60
11505;DHT22;5809;53.262;10.408;2022-11-18T20:41:47;-2.60;99.40
11505;DHT22;5809;53.262;10.408;2022-11-18T20:44:31;-2.70;98.60
11505;DHT22;5809;53.262;10.408;2022-11-18T20:46:57;-2.70;99.90
11505;DHT22;5809;53.262;10.408;2022-11-18T20:51:53;-2.80;99.90
11505;DHT22;5809;53.262;10.408;2022-11-18T20:59:14;-1.90;99.90
11505;DHT22;5809;53.262;10.408;2022-11-18T21:06:37;-3.10;99.90
11505;DHT22;5809;53.262;10.408;2022-11-18T21:09:05;-3.00;99.90
11505;DHT22;5809;53.262;10.408;2022-11-18T21:16:42;-3.20;99.90
11505;DHT22;5809;53.262;10.408;2022-11-18T21:19:10;-3.10;99.90
11505;DHT22;5809;53.262;10.408;2022-11-18T21:21:38;-3.10;99.90
11505;DHT22;5809;53.262;10.408;2022-11-18T21:24:15;-3.00;99.90
11505;DHT22;5809;53.262;10.408;2022-11-18T21:26:43;-3.00;99.90
11505;DHT22;5809;53.262;10.408;2022-11-18T21:29:12;-3.00;99.90
11505;DHT22;5809;53.262;10.408;2022-11-18T21:31:39;-3.00;99.90
11505;DHT22;5809;53.262;10.408;2022-11-18T21:34:06;-3.10;99.90
11505;DHT22;5809;53.262;10.408;2022-11-18T21:36:34;-3.20;99.90
11505;DHT22;5809;53.262;10.408;2022-11-18T21:39:02;-3.10;99.90
11505;DHT22;5809;53.262;10.408;2022-11-18T21:43:58;-3.20;99.90
11505;DHT22;5809;53.262;10.408;2022-11-18T21:46:26;-3.20;99.90
11505;DHT22;5809;53.262;10.408;2022-11-18T21:51:22;-3.30;99.90
11505;DHT22;5809;53.262;10.408;2022-11-18T21:53:50;-3.40;99.90
11505;DHT22;5809;53.262;10.408;2022-11-18T21:56:19;-2.00;99.90
11505;DHT22;5809;53.262;10.408;2022-11-18T21:58:48;-3.40;99.90
11505;DHT22;5809;53.262;10.408;2022-11-18T22:01:16;-3.50;99.90
11505;DHT22;5809;53.262;10.408;2022-11-18T22:03:47;-3.40;99.90
11505;DHT22;5809;53.262;10.408;2022-11-18T22:06:15;-3.40;99.90
11505;DHT22;5809;53.262;10.408;2022-11-18T22:11:12;-3.40;99.90
11505;DHT22;5809;53.262;10.408;2022-11-18T22:13:39;-3.40;99.90
11505;DHT22;5809;53.262;10.408;2022-11-18T22:16:10;-3.40;99.90
11505;DHT22;5809;53.262;10.408;2022-11-18T22:18:38;-3.50;99.90
11505;DHT22;5809;53.262;10.408;2022-11-18T22:21:07;-3.50;99.90
11505;DHT22;5809;53.262;10.408;2022-11-18T22:26:02;-3.50;99.90
11505;DHT22;5809;53.262;10.408;2022-11-18T22:28:31;-3.70;99.90
11505;DHT22;5809;53.262;10.408;2022-11-18T22:31:01;-3.60;99.90
11505;DHT22;5809;53.262;10.408;2022-11-18T22:33:30;-3.60;99.90
11505;DHT22;5809;53.262;10.408;2022-11-18T22:36:00;-3.70;99.90
11505;DHT22;5809;53.262;10.408;2022-11-18T22:40:58;-3.80;99.90
11505;DHT22;5809;53.262;10.408;2022-11-18T22:43:26;-3.80;99.90
11505;DHT22;5809;53.262;10.408;2022-11-18T22:46:02;-3.80;99.90
11505;DHT22;5809;53.262;10.408;2022-11-18T22:50:58;-3.90;99.90
11505;DHT22;5809;53.262;10.408;2022-11-18T22:53:26;-3.90;99.90
11505;DHT22;5809;53.262;10.408;2022-11-18T22:56:01;-4.00;99.90
11505;DHT22;5809;53.262;10.408;2022-11-18T23:00:58;-4.00;99.90
11505;DHT22;5809;53.262;10.408;2022-11-18T23:03:26;-3.90;99.90
11505;DHT22;5809;53.262;10.408;2022-11-18T23:05:54;-4.00;99.90
11505;DHT22;5809;53.262;10.408;2022-11-18T23:13:16;-4.00;99.90
11505;DHT22;5809;53.262;10.408;2022-11-18T23:16:01;-4.00;99.90
11505;DHT22;5809;53.262;10.408;2022-11-18T23:18:28;-4.00;99.90
11505;DHT22;5809;53.262;10.408;2022-11-18T23:20:59;-3.90;99.90
11505;DHT22;5809;53.262;10.408;2022-11-18T23:28:21;-4.00;99.90
11505;DHT22;5809;53.262;10.408;2022-11-18T23:33:15;-4.00;99.90
11505;DHT22;5809;53.262;10.408;2022-11-18T23:38:10;-4.00;99.90
11505;DHT22;5809;53.262;10.408;2022-11-18T23:40:37;-4.00;99.90
11505;DHT22;5809;53.262;10.408;2022-11-18T23:50:26;-4.00;99.90
